Aviation Digital Data Service (ADDS)

Output produced by METARs form (2111 UTC 20 August 2019)
found at http://www.aviationweather.gov/metar/data/
 
METAR text: TFFF 202100Z AUTO 06008KT 040V100 9999 -RA SCT032 BKN052 BKN074 29/25 Q1014 TEMPO 4000 SHRA BKN015TCU
Conditions at: TFFF (LE LAMENTIN/MART, MQ) observed 2100 UTC 20 August 2019
Temperature: 29.0°C (84°F)
Dewpoint: 25.0°C (77°F) [RH = 79%]
Pressure (altimeter): 29.94 inches Hg (1014.0 mb)
Winds: from the ENE (60 degrees) at 9 MPH (8 knots; 4.1 m/s)
Visibility: 6 or more miles (10+ km)
Ceiling: 5200 feet AGL
Clouds: scattered clouds at 3200 feet AGL
broken clouds at 5200 feet AGL
broken clouds at 7400 feet AGL
Weather: -RA  (light rain)

METAR text: TFFF 202030Z AUTO 07008KT 020V110 9999 FEW029/// SCT037/// ///TCU 31/24 Q1014 TEMPO 4000 SHRA
Conditions at: TFFF (LE LAMENTIN/MART, MQ) observed 2030 UTC 20 August 2019
Temperature: 31.0°C (88°F)
Dewpoint: 24.0°C (75°F) [RH = 66%]
Pressure (altimeter): 29.94 inches Hg (1014.0 mb)
Winds: from the ENE (70 degrees) at 9 MPH (8 knots; 4.1 m/s)
Visibility: 6 or more miles (10+ km)
Ceiling: at least 12,000 feet AGL
Clouds: few clouds at 2900 feet AGL
scattered clouds at 3700 feet AGL
Weather: no significant weather observed at this time

METAR text: TFFF 202000Z AUTO 09010KT 9999 SCT033 SCT040 31/24 Q1014 TEMPO 4000 SHRA BKN015TCU
Conditions at: TFFF (LE LAMENTIN/MART, MQ) observed 2000 UTC 20 August 2019
Temperature: 31.0°C (88°F)
Dewpoint: 24.0°C (75°F) [RH = 66%]
Pressure (altimeter): 29.94 inches Hg (1014.0 mb)
Winds: from the E (90 degrees) at 12 MPH (10 knots; 5.1 m/s)
Visibility: 6 or more miles (10+ km)
Ceiling: at least 12,000 feet AGL
Clouds: scattered clouds at 3300 feet AGL
scattered clouds at 4000 feet AGL
Weather: no significant weather observed at this time

METAR text: TFFF 201930Z AUTO 08010KT 050V110 9999 FEW035 31/23 Q1014 TEMPO 4000 SHRA BKN015TCU
Conditions at: TFFF (LE LAMENTIN/MART, MQ) observed 1930 UTC 20 August 2019
Temperature: 31.0°C (88°F)
Dewpoint: 23.0°C (73°F) [RH = 63%]
Pressure (altimeter): 29.94 inches Hg (1014.0 mb)
Winds: from the E (80 degrees) at 12 MPH (10 knots; 5.1 m/s)
Visibility: 6 or more miles (10+ km)
Ceiling: at least 12,000 feet AGL
Clouds: few clouds at 3500 feet AGL
Weather: no significant weather observed at this time

METAR text: TFFF 201900Z AUTO 08009KT 020V120 9999 SCT035 31/23 Q1014 TEMPO 4000 SHRA BKN015TCU
Conditions at: TFFF (LE LAMENTIN/MART, MQ) observed 1900 UTC 20 August 2019
Temperature: 31.0°C (88°F)
Dewpoint: 23.0°C (73°F) [RH = 63%]
Pressure (altimeter): 29.94 inches Hg (1014.0 mb)
Winds: from the E (80 degrees) at 10 MPH (9 knots; 4.6 m/s)
Visibility: 6 or more miles (10+ km)
Ceiling: at least 12,000 feet AGL
Clouds: scattered clouds at 3500 feet AGL
Weather: no significant weather observed at this time

METAR text: TFFF 201830Z AUTO 10012KT 9999 SCT036 BKN056 31/23 Q1014 TEMPO 4000 SHRA BKN015TCU
Conditions at: TFFF (LE LAMENTIN/MART, MQ) observed 1830 UTC 20 August 2019
Temperature: 31.0°C (88°F)
Dewpoint: 23.0°C (73°F) [RH = 63%]
Pressure (altimeter): 29.94 inches Hg (1014.0 mb)
Winds: from the E (100 degrees) at 14 MPH (12 knots; 6.2 m/s)
Visibility: 6 or more miles (10+ km)
Ceiling: 5600 feet AGL
Clouds: scattered clouds at 3600 feet AGL
broken clouds at 5600 feet AGL
Weather: no significant weather observed at this time

METAR text: TFFF 201800Z AUTO 09010KT 060V120 9999 FEW035 32/25 Q1015 TEMPO 4000 SHRA BKN015TCU
Conditions at: TFFF (LE LAMENTIN/MART, MQ) observed 1800 UTC 20 August 2019
Temperature: 32.0°C (90°F)
Dewpoint: 25.0°C (77°F) [RH = 67%]
Pressure (altimeter): 29.97 inches Hg (1015.0 mb)
Winds: from the E (90 degrees) at 12 MPH (10 knots; 5.1 m/s)
Visibility: 6 or more miles (10+ km)
Ceiling: at least 12,000 feet AGL
Clouds: few clouds at 3500 feet AGL
Weather: no significant weather observed at this time

METAR text: TFFF 201730Z AUTO 09011KT 9999 FEW035 31/24 Q1015 NOSIG
Conditions at: TFFF (LE LAMENTIN/MART, MQ) observed 1730 UTC 20 August 2019
Temperature: 31.0°C (88°F)
Dewpoint: 24.0°C (75°F) [RH = 66%]
Pressure (altimeter): 29.97 inches Hg (1015.0 mb)
Winds: from the E (90 degrees) at 13 MPH (11 knots; 5.7 m/s)
Visibility: 6 or more miles (10+ km)
Ceiling: at least 12,000 feet AGL
Clouds: few clouds at 3500 feet AGL
Weather: no significant weather observed at this time

METAR text: TFFF 201700Z AUTO 10012KT 9999 SCT030 SCT037 BKN080 31/25 Q1015 NOSIG
Conditions at: TFFF (LE LAMENTIN/MART, MQ) observed 1700 UTC 20 August 2019
Temperature: 31.0°C (88°F)
Dewpoint: 25.0°C (77°F) [RH = 71%]
Pressure (altimeter): 29.97 inches Hg (1015.0 mb)
Winds: from the E (100 degrees) at 14 MPH (12 knots; 6.2 m/s)
Visibility: 6 or more miles (10+ km)
Ceiling: 8000 feet AGL
Clouds: scattered clouds at 3000 feet AGL
scattered clouds at 3700 feet AGL
broken clouds at 8000 feet AGL
Weather: no significant weather observed at this time

METAR text: TFFF 201630Z AUTO 14007KT 080V190 9999 FEW016/// BKN029/// BKN062/// ///TCU 30/25 Q1016 BECMG SCT025
Conditions at: TFFF (LE LAMENTIN/MART, MQ) observed 1630 UTC 20 August 2019
Temperature: 30.0°C (86°F)
Dewpoint: 25.0°C (77°F) [RH = 75%]
Pressure (altimeter): 30.00 inches Hg (1016.0 mb)
Winds: from the SE (140 degrees) at 8 MPH (7 knots; 3.6 m/s)
Visibility: 6 or more miles (10+ km)
Ceiling: 2900 feet AGL
Clouds: few clouds at 1600 feet AGL
broken clouds at 2900 feet AGL
broken clouds at 6200 feet AGL
Weather: no significant weather observed at this time

METAR text: TFFF 201600Z AUTO 10014KT 070V130 9999 -RA FEW012/// BKN034/// BKN040/// ///TCU 28/24 Q1016 BECMG SCT025
Conditions at: TFFF (LE LAMENTIN/MART, MQ) observed 1600 UTC 20 August 2019
Temperature: 28.0°C (82°F)
Dewpoint: 24.0°C (75°F) [RH = 79%]
Pressure (altimeter): 30.00 inches Hg (1016.0 mb)
Winds: from the E (100 degrees) at 16 MPH (14 knots; 7.2 m/s)
Visibility: 6 or more miles (10+ km)
Ceiling: 3400 feet AGL
Clouds: few clouds at 1200 feet AGL
broken clouds at 3400 feet AGL
broken clouds at 4000 feet AGL
Weather: -RA  (light rain)

METAR text: TFFF 201530Z AUTO 10010KT 070V130 9999 FEW028 BKN036 BKN043 32/24 Q1016 NOSIG
Conditions at: TFFF (LE LAMENTIN/MART, MQ) observed 1530 UTC 20 August 2019
Temperature: 32.0°C (90°F)
Dewpoint: 24.0°C (75°F) [RH = 63%]
Pressure (altimeter): 30.00 inches Hg (1016.0 mb)
Winds: from the E (100 degrees) at 12 MPH (10 knots; 5.1 m/s)
Visibility: 6 or more miles (10+ km)
Ceiling: 3600 feet AGL
Clouds: few clouds at 2800 feet AGL
broken clouds at 3600 feet AGL
broken clouds at 4300 feet AGL
Weather: no significant weather observed at this time

METAR text: TFFF 201500Z AUTO 09008KT 050V140 9999 BKN032 BKN039 31/25 Q1016 NOSIG
Conditions at: TFFF (LE LAMENTIN/MART, MQ) observed 1500 UTC 20 August 2019
Temperature: 31.0°C (88°F)
Dewpoint: 25.0°C (77°F) [RH = 71%]
Pressure (altimeter): 30.00 inches Hg (1016.0 mb)
Winds: from the E (90 degrees) at 9 MPH (8 knots; 4.1 m/s)
Visibility: 6 or more miles (10+ km)
Ceiling: 3200 feet AGL
Clouds: broken clouds at 3200 feet AGL
broken clouds at 3900 feet AGL
Weather: no significant weather observed at this time

METAR text: TFFF 201430Z AUTO 09009KT 040V130 9999 BKN032 32/23 Q1017 NOSIG
Conditions at: TFFF (LE LAMENTIN/MART, MQ) observed 1430 UTC 20 August 2019
Temperature: 32.0°C (90°F)
Dewpoint: 23.0°C (73°F) [RH = 59%]
Pressure (altimeter): 30.03 inches Hg (1017.0 mb)
Winds: from the E (90 degrees) at 10 MPH (9 knots; 4.6 m/s)
Visibility: 6 or more miles (10+ km)
Ceiling: 3200 feet AGL
Clouds: broken clouds at 3200 feet AGL
Weather: no significant weather observed at this time

METAR text: TFFF 201400Z AUTO 09007KT 050V110 9999 FEW029 SCT070 30/24 Q1016 NOSIG
Conditions at: TFFF (LE LAMENTIN/MART, MQ) observed 1400 UTC 20 August 2019
Temperature: 30.0°C (86°F)
Dewpoint: 24.0°C (75°F) [RH = 70%]
Pressure (altimeter): 30.00 inches Hg (1016.0 mb)
Winds: from the E (90 degrees) at 8 MPH (7 knots; 3.6 m/s)
Visibility: 6 or more miles (10+ km)
Ceiling: at least 12,000 feet AGL
Clouds: few clouds at 2900 feet AGL
scattered clouds at 7000 feet AGL
Weather: no significant weather observed at this time

METAR text: TFFF 201330Z AUTO 07009KT 020V100 //// R10///// // FEW002 BKN028 BKN035 30/23 Q1016
Conditions at: TFFF (LE LAMENTIN/MART, MQ) observed 1330 UTC 20 August 2019
Temperature: 30.0°C (86°F)
Dewpoint: 23.0°C (73°F) [RH = 66%]
Pressure (altimeter): 30.00 inches Hg (1016.0 mb)
Winds: from the ENE (70 degrees) at 10 MPH (9 knots; 4.6 m/s)
Visibility: missing
Ceiling: 2800 feet AGL
Clouds: few clouds at 200 feet AGL
broken clouds at 2800 feet AGL
broken clouds at 3500 feet AGL
Weather: no significant weather observed at this time

METAR text: TFFF 201300Z AUTO 07008KT 040V110 9999 BKN026 BKN033 30/24 Q1016 NOSIG
Conditions at: TFFF (LE LAMENTIN/MART, MQ) observed 1300 UTC 20 August 2019
Temperature: 30.0°C (86°F)
Dewpoint: 24.0°C (75°F) [RH = 70%]
Pressure (altimeter): 30.00 inches Hg (1016.0 mb)
Winds: from the ENE (70 degrees) at 9 MPH (8 knots; 4.1 m/s)
Visibility: 6 or more miles (10+ km)
Ceiling: 2600 feet AGL
Clouds: broken clouds at 2600 feet AGL
broken clouds at 3300 feet AGL
Weather: no significant weather observed at this time

METAR text: TFFF 201230Z AUTO 08007KT 040V100 9999 FEW024 SCT042 BKN060 30/25 Q1016 NOSIG
Conditions at: TFFF (LE LAMENTIN/MART, MQ) observed 1230 UTC 20 August 2019
Temperature: 30.0°C (86°F)
Dewpoint: 25.0°C (77°F) [RH = 75%]
Pressure (altimeter): 30.00 inches Hg (1016.0 mb)
Winds: from the E (80 degrees) at 8 MPH (7 knots; 3.6 m/s)
Visibility: 6 or more miles (10+ km)
Ceiling: 6000 feet AGL
Clouds: few clouds at 2400 feet AGL
scattered clouds at 4200 feet AGL
broken clouds at 6000 feet AGL
Weather: no significant weather observed at this time

METAR text: TFFF 201200Z AUTO 08007KT 050V110 9999 FEW024 29/24 Q1016 NOSIG
Conditions at: TFFF (LE LAMENTIN/MART, MQ) observed 1200 UTC 20 August 2019
Temperature: 29.0°C (84°F)
Dewpoint: 24.0°C (75°F) [RH = 74%]
Pressure (altimeter): 30.00 inches Hg (1016.0 mb)
Winds: from the E (80 degrees) at 8 MPH (7 knots; 3.6 m/s)
Visibility: 6 or more miles (10+ km)
Ceiling: at least 12,000 feet AGL
Clouds: few clouds at 2400 feet AGL
Weather: no significant weather observed at this time

METAR text: TFFF 201130Z AUTO 08004KT 050V110 9999 FEW001 BKN060 29/25 Q1016 NOSIG
Conditions at: TFFF (LE LAMENTIN/MART, MQ) observed 1130 UTC 20 August 2019
Temperature: 29.0°C (84°F)
Dewpoint: 25.0°C (77°F) [RH = 79%]
Pressure (altimeter): 30.00 inches Hg (1016.0 mb)
Winds: from the E (80 degrees) at 5 MPH (4 knots; 2.1 m/s)
Visibility: 6 or more miles (10+ km)
Ceiling: 6000 feet AGL
Clouds: few clouds at 100 feet AGL
broken clouds at 6000 feet AGL
Weather: no significant weather observed at this time

METAR text: TFFF 201100Z AUTO VRB01KT 9999 OVC060 27/25 Q1015 TEMPO 4000 -SHRA BKN018TCU BECMG 08013KT
Conditions at: TFFF (LE LAMENTIN/MART, MQ) observed 1100 UTC 20 August 2019
Temperature: 27.0°C (81°F)
Dewpoint: 25.0°C (77°F) [RH = 89%]
Pressure (altimeter): 29.97 inches Hg (1015.0 mb)
Winds: variable direction winds at 1 MPH (1 knots; 0.5 m/s)
Visibility: 6 or more miles (10+ km)
Ceiling: 6000 feet AGL
Clouds: overcast cloud deck at 6000 feet AGL
Weather: no significant weather observed at this time

METAR text: TFFF 201030Z AUTO VRB03KT 9999 FEW021 BKN037 BKN060 25/24 Q1015 TEMPO 4000 -SHRA BKN018TCU BECMG 08013KT
Conditions at: TFFF (LE LAMENTIN/MART, MQ) observed 1030 UTC 20 August 2019
Temperature: 25.0°C (77°F)
Dewpoint: 24.0°C (75°F) [RH = 94%]
Pressure (altimeter): 29.97 inches Hg (1015.0 mb)
Winds: variable direction winds at 3 MPH (3 knots; 1.5 m/s)
Visibility: 6 or more miles (10+ km)
Ceiling: 3700 feet AGL
Clouds: few clouds at 2100 feet AGL
broken clouds at 3700 feet AGL
broken clouds at 6000 feet AGL
Weather: no significant weather observed at this time

METAR text: TFFF 201000Z AUTO VRB03KT 9999 BKN020/// BKN026/// BKN033/// ///TCU 25/24 Q1015 TEMPO 4000 -SHRA BECMG 08013KT
Conditions at: TFFF (LE LAMENTIN/MART, MQ) observed 1000 UTC 20 August 2019
Temperature: 25.0°C (77°F)
Dewpoint: 24.0°C (75°F) [RH = 94%]
Pressure (altimeter): 29.97 inches Hg (1015.0 mb)
Winds: variable direction winds at 3 MPH (3 knots; 1.5 m/s)
Visibility: 6 or more miles (10+ km)
Ceiling: 2000 feet AGL
Clouds: broken clouds at 2000 feet AGL
broken clouds at 2600 feet AGL
broken clouds at 3300 feet AGL
Weather: no significant weather observed at this time

METAR text: TFFF 200930Z AUTO VRB02KT 9999 FEW025 SCT040 BKN058 25/24 Q1015 TEMPO 4000 -SHRA BKN018TCU BECMG 08013KT
Conditions at: TFFF (LE LAMENTIN/MART, MQ) observed 0930 UTC 20 August 2019
Temperature: 25.0°C (77°F)
Dewpoint: 24.0°C (75°F) [RH = 94%]
Pressure (altimeter): 29.97 inches Hg (1015.0 mb)
Winds: variable direction winds at 2 MPH (2 knots; 1.0 m/s)
Visibility: 6 or more miles (10+ km)
Ceiling: 5800 feet AGL
Clouds: few clouds at 2500 feet AGL
scattered clouds at 4000 feet AGL
broken clouds at 5800 feet AGL
Weather: no significant weather observed at this time

METAR text: TFFF 200900Z AUTO VRB02KT 9999 FEW025 SCT035 BKN041 25/24 Q1014 TEMPO 4000 -SHRA BKN018TCU BECMG 08013KT
Conditions at: TFFF (LE LAMENTIN/MART, MQ) observed 0900 UTC 20 August 2019
Temperature: 25.0°C (77°F)
Dewpoint: 24.0°C (75°F) [RH = 94%]
Pressure (altimeter): 29.94 inches Hg (1014.0 mb)
Winds: variable direction winds at 2 MPH (2 knots; 1.0 m/s)
Visibility: 6 or more miles (10+ km)
Ceiling: 4100 feet AGL
Clouds: few clouds at 2500 feet AGL
scattered clouds at 3500 feet AGL
broken clouds at 4100 feet AGL
Weather: no significant weather observed at this time

METAR text: TFFF 200830Z AUTO 12002KT 9999 FEW028 24/23 Q1014 TEMPO 4000 -SHRA BKN018TCU BECMG 08013KT
Conditions at: TFFF (LE LAMENTIN/MART, MQ) observed 0830 UTC 20 August 2019
Temperature: 24.0°C (75°F)
Dewpoint: 23.0°C (73°F) [RH = 94%]
Pressure (altimeter): 29.94 inches Hg (1014.0 mb)
Winds: from the ESE (120 degrees) at 2 MPH (2 knots; 1.0 m/s)
Visibility: 6 or more miles (10+ km)
Ceiling: at least 12,000 feet AGL
Clouds: few clouds at 2800 feet AGL
Weather: no significant weather observed at this time

METAR text: TFFF 200800Z AUTO 11002KT CAVOK 25/24 Q1014 TEMPO 4000 -SHRA BKN018TCU
Conditions at: TFFF (LE LAMENTIN/MART, MQ) observed 0800 UTC 20 August 2019
Temperature: 25.0°C (77°F)
Dewpoint: 24.0°C (75°F) [RH = 94%]
Pressure (altimeter): 29.94 inches Hg (1014.0 mb)
Winds: from the ESE (110 degrees) at 2 MPH (2 knots; 1.0 m/s)
Visibility: 6 or more miles (10+ km)
Ceiling: ceiling and visibility are OK
Clouds: unknown
Weather: no significant weather observed at this time

METAR text: TFFF 200730Z AUTO 09002KT 9999 FEW022 25/24 Q1014 TEMPO 4000 -SHRA BKN018TCU
Conditions at: TFFF (LE LAMENTIN/MART, MQ) observed 0730 UTC 20 August 2019
Temperature: 25.0°C (77°F)
Dewpoint: 24.0°C (75°F) [RH = 94%]
Pressure (altimeter): 29.94 inches Hg (1014.0 mb)
Winds: from the E (90 degrees) at 2 MPH (2 knots; 1.0 m/s)
Visibility: 6 or more miles (10+ km)
Ceiling: at least 12,000 feet AGL
Clouds: few clouds at 2200 feet AGL
Weather: no significant weather observed at this time

METAR text: TFFF 200700Z AUTO VRB01KT 9999 FEW023 SCT035 BKN052 25/24 Q1014 NOSIG
Conditions at: TFFF (LE LAMENTIN/MART, MQ) observed 0700 UTC 20 August 2019
Temperature: 25.0°C (77°F)
Dewpoint: 24.0°C (75°F) [RH = 94%]
Pressure (altimeter): 29.94 inches Hg (1014.0 mb)
Winds: variable direction winds at 1 MPH (1 knots; 0.5 m/s)
Visibility: 6 or more miles (10+ km)
Ceiling: 5200 feet AGL
Clouds: few clouds at 2300 feet AGL
scattered clouds at 3500 feet AGL
broken clouds at 5200 feet AGL
Weather: no significant weather observed at this time

METAR text: TFFF 200630Z AUTO VRB02KT 9999 SCT024 BKN033 BKN041 25/24 Q1015 NOSIG
Conditions at: TFFF (LE LAMENTIN/MART, MQ) observed 0630 UTC 20 August 2019
Temperature: 25.0°C (77°F)
Dewpoint: 24.0°C (75°F) [RH = 94%]
Pressure (altimeter): 29.97 inches Hg (1015.0 mb)
Winds: variable direction winds at 2 MPH (2 knots; 1.0 m/s)
Visibility: 6 or more miles (10+ km)
Ceiling: 3300 feet AGL
Clouds: scattered clouds at 2400 feet AGL
broken clouds at 3300 feet AGL
broken clouds at 4100 feet AGL
Weather: no significant weather observed at this time

METAR text: TFFF 200600Z AUTO 07003KT 9999 FEW026 25/24 Q1015 NOSIG
Conditions at: TFFF (LE LAMENTIN/MART, MQ) observed 0600 UTC 20 August 2019
Temperature: 25.0°C (77°F)
Dewpoint: 24.0°C (75°F) [RH = 94%]
Pressure (altimeter): 29.97 inches Hg (1015.0 mb)
Winds: from the ENE (70 degrees) at 3 MPH (3 knots; 1.5 m/s)
Visibility: 6 or more miles (10+ km)
Ceiling: at least 12,000 feet AGL
Clouds: few clouds at 2600 feet AGL
Weather: no significant weather observed at this time

METAR text: TFFF 200530Z AUTO VRB02KT 9999 FEW029 25/23 Q1015 NOSIG
Conditions at: TFFF (LE LAMENTIN/MART, MQ) observed 0530 UTC 20 August 2019
Temperature: 25.0°C (77°F)
Dewpoint: 23.0°C (73°F) [RH = 89%]
Pressure (altimeter): 29.97 inches Hg (1015.0 mb)
Winds: variable direction winds at 2 MPH (2 knots; 1.0 m/s)
Visibility: 6 or more miles (10+ km)
Ceiling: at least 12,000 feet AGL
Clouds: few clouds at 2900 feet AGL
Weather: no significant weather observed at this time

METAR text: TFFF 200500Z AUTO 06003KT 9999 FEW026 26/24 Q1015 NOSIG
Conditions at: TFFF (LE LAMENTIN/MART, MQ) observed 0500 UTC 20 August 2019
Temperature: 26.0°C (79°F)
Dewpoint: 24.0°C (75°F) [RH = 89%]
Pressure (altimeter): 29.97 inches Hg (1015.0 mb)
Winds: from the ENE (60 degrees) at 3 MPH (3 knots; 1.5 m/s)
Visibility: 6 or more miles (10+ km)
Ceiling: at least 12,000 feet AGL
Clouds: few clouds at 2600 feet AGL
Weather: no significant weather observed at this time

METAR text: TFFF 200430Z AUTO 06003KT 9999 FEW026 26/24 Q1016 NOSIG
Conditions at: TFFF (LE LAMENTIN/MART, MQ) observed 0430 UTC 20 August 2019
Temperature: 26.0°C (79°F)
Dewpoint: 24.0°C (75°F) [RH = 89%]
Pressure (altimeter): 30.00 inches Hg (1016.0 mb)
Winds: from the ENE (60 degrees) at 3 MPH (3 knots; 1.5 m/s)
Visibility: 6 or more miles (10+ km)
Ceiling: at least 12,000 feet AGL
Clouds: few clouds at 2600 feet AGL
Weather: no significant weather observed at this time

METAR text: TFFF 200400Z AUTO VRB03KT 9999 FEW024 26/24 Q1016 NOSIG
Conditions at: TFFF (LE LAMENTIN/MART, MQ) observed 0400 UTC 20 August 2019
Temperature: 26.0°C (79°F)
Dewpoint: 24.0°C (75°F) [RH = 89%]
Pressure (altimeter): 30.00 inches Hg (1016.0 mb)
Winds: variable direction winds at 3 MPH (3 knots; 1.5 m/s)
Visibility: 6 or more miles (10+ km)
Ceiling: at least 12,000 feet AGL
Clouds: few clouds at 2400 feet AGL
Weather: no significant weather observed at this time

METAR text: TFFF 200330Z AUTO 00000KT CAVOK 26/24 Q1016 NOSIG
Conditions at: TFFF (LE LAMENTIN/MART, MQ) observed 0330 UTC 20 August 2019
Temperature: 26.0°C (79°F)
Dewpoint: 24.0°C (75°F) [RH = 89%]
Pressure (altimeter): 30.00 inches Hg (1016.0 mb)
Winds: calm
Visibility: 6 or more miles (10+ km)
Ceiling: ceiling and visibility are OK
Clouds: unknown
Weather: no significant weather observed at this time

METAR text: TFFF 200300Z AUTO 07003KT CAVOK 26/24 Q1016 NOSIG
Conditions at: TFFF (LE LAMENTIN/MART, MQ) observed 0300 UTC 20 August 2019
Temperature: 26.0°C (79°F)
Dewpoint: 24.0°C (75°F) [RH = 89%]
Pressure (altimeter): 30.00 inches Hg (1016.0 mb)
Winds: from the ENE (70 degrees) at 3 MPH (3 knots; 1.5 m/s)
Visibility: 6 or more miles (10+ km)
Ceiling: ceiling and visibility are OK
Clouds: unknown
Weather: no significant weather observed at this time

METAR text: TFFF 200230Z AUTO VRB02KT 9999 BKN025 BKN040 27/24 Q1016 NOSIG
Conditions at: TFFF (LE LAMENTIN/MART, MQ) observed 0230 UTC 20 August 2019
Temperature: 27.0°C (81°F)
Dewpoint: 24.0°C (75°F) [RH = 84%]
Pressure (altimeter): 30.00 inches Hg (1016.0 mb)
Winds: variable direction winds at 2 MPH (2 knots; 1.0 m/s)
Visibility: 6 or more miles (10+ km)
Ceiling: 2500 feet AGL
Clouds: broken clouds at 2500 feet AGL
broken clouds at 4000 feet AGL
Weather: no significant weather observed at this time

METAR text: TFFF 200200Z AUTO VRB03KT 9999 FEW034 SCT062 27/24 Q1016 NOSIG
Conditions at: TFFF (LE LAMENTIN/MART, MQ) observed 0200 UTC 20 August 2019
Temperature: 27.0°C (81°F)
Dewpoint: 24.0°C (75°F) [RH = 84%]
Pressure (altimeter): 30.00 inches Hg (1016.0 mb)
Winds: variable direction winds at 3 MPH (3 knots; 1.5 m/s)
Visibility: 6 or more miles (10+ km)
Ceiling: at least 12,000 feet AGL
Clouds: few clouds at 3400 feet AGL
scattered clouds at 6200 feet AGL
Weather: no significant weather observed at this time

METAR text: TFFF 200130Z AUTO 06003KT 9999 FEW048 27/24 Q1016 NOSIG
Conditions at: TFFF (LE LAMENTIN/MART, MQ) observed 0130 UTC 20 August 2019
Temperature: 27.0°C (81°F)
Dewpoint: 24.0°C (75°F) [RH = 84%]
Pressure (altimeter): 30.00 inches Hg (1016.0 mb)
Winds: from the ENE (60 degrees) at 3 MPH (3 knots; 1.5 m/s)
Visibility: 6 or more miles (10+ km)
Ceiling: at least 12,000 feet AGL
Clouds: few clouds at 4800 feet AGL
Weather: no significant weather observed at this time

METAR text: TFFF 200100Z AUTO 05003KT CAVOK 27/24 Q1016 NOSIG
Conditions at: TFFF (LE LAMENTIN/MART, MQ) observed 0100 UTC 20 August 2019
Temperature: 27.0°C (81°F)
Dewpoint: 24.0°C (75°F) [RH = 84%]
Pressure (altimeter): 30.00 inches Hg (1016.0 mb)
Winds: from the NE (50 degrees) at 3 MPH (3 knots; 1.5 m/s)
Visibility: 6 or more miles (10+ km)
Ceiling: ceiling and visibility are OK
Clouds: unknown
Weather: no significant weather observed at this time

METAR text: TFFF 200030Z AUTO 05002KT CAVOK 27/24 Q1015 NOSIG
Conditions at: TFFF (LE LAMENTIN/MART, MQ) observed 0030 UTC 20 August 2019
Temperature: 27.0°C (81°F)
Dewpoint: 24.0°C (75°F) [RH = 84%]
Pressure (altimeter): 29.97 inches Hg (1015.0 mb)
Winds: from the NE (50 degrees) at 2 MPH (2 knots; 1.0 m/s)
Visibility: 6 or more miles (10+ km)
Ceiling: ceiling and visibility are OK
Clouds: unknown
Weather: no significant weather observed at this time

METAR text: TFFF 200000Z AUTO 10003KT 9999 SCT024 SCT031 BKN045 27/24 Q1015 NOSIG
Conditions at: TFFF (LE LAMENTIN/MART, MQ) observed 0000 UTC 20 August 2019
Temperature: 27.0°C (81°F)
Dewpoint: 24.0°C (75°F) [RH = 84%]
Pressure (altimeter): 29.97 inches Hg (1015.0 mb)
Winds: from the E (100 degrees) at 3 MPH (3 knots; 1.5 m/s)
Visibility: 6 or more miles (10+ km)
Ceiling: 4500 feet AGL
Clouds: scattered clouds at 2400 feet AGL
scattered clouds at 3100 feet AGL
broken clouds at 4500 feet AGL
Weather: no significant weather observed at this time

METAR text: TFFF 192330Z AUTO 09004KT CAVOK 27/24 Q1015 NOSIG
Conditions at: TFFF (LE LAMENTIN/MART, MQ) observed 2330 UTC 19 August 2019
Temperature: 27.0°C (81°F)
Dewpoint: 24.0°C (75°F) [RH = 84%]
Pressure (altimeter): 29.97 inches Hg (1015.0 mb)
Winds: from the E (90 degrees) at 5 MPH (4 knots; 2.1 m/s)
Visibility: 6 or more miles (10+ km)
Ceiling: ceiling and visibility are OK
Clouds: unknown
Weather: no significant weather observed at this time

METAR text: TFFF 192300Z AUTO 10005KT CAVOK 28/24 Q1015
Conditions at: TFFF (LE LAMENTIN/MART, MQ) observed 2300 UTC 19 August 2019
Temperature: 28.0°C (82°F)
Dewpoint: 24.0°C (75°F) [RH = 79%]
Pressure (altimeter): 29.97 inches Hg (1015.0 mb)
Winds: from the E (100 degrees) at 6 MPH (5 knots; 2.6 m/s)
Visibility: 6 or more miles (10+ km)
Ceiling: ceiling and visibility are OK
Clouds: unknown
Weather: no significant weather observed at this time

METAR text: TFFF 192230Z AUTO 11007KT CAVOK 28/24 Q1014
Conditions at: TFFF (LE LAMENTIN/MART, MQ) observed 2230 UTC 19 August 2019
Temperature: 28.0°C (82°F)
Dewpoint: 24.0°C (75°F) [RH = 79%]
Pressure (altimeter): 29.94 inches Hg (1014.0 mb)
Winds: from the ESE (110 degrees) at 8 MPH (7 knots; 3.6 m/s)
Visibility: 6 or more miles (10+ km)
Ceiling: ceiling and visibility are OK
Clouds: unknown
Weather: no significant weather observed at this time

METAR text: TFFF 192200Z AUTO 09008KT CAVOK 29/24 Q1014
Conditions at: TFFF (LE LAMENTIN/MART, MQ) observed 2200 UTC 19 August 2019
Temperature: 29.0°C (84°F)
Dewpoint: 24.0°C (75°F) [RH = 74%]
Pressure (altimeter): 29.94 inches Hg (1014.0 mb)
Winds: from the E (90 degrees) at 9 MPH (8 knots; 4.1 m/s)
Visibility: 6 or more miles (10+ km)
Ceiling: ceiling and visibility are OK
Clouds: unknown
Weather: no significant weather observed at this time

METAR text: TFFF 192130Z AUTO 10009KT CAVOK 30/24 Q1014
Conditions at: TFFF (LE LAMENTIN/MART, MQ) observed 2130 UTC 19 August 2019
Temperature: 30.0°C (86°F)
Dewpoint: 24.0°C (75°F) [RH = 70%]
Pressure (altimeter): 29.94 inches Hg (1014.0 mb)
Winds: from the E (100 degrees) at 10 MPH (9 knots; 4.6 m/s)
Visibility: 6 or more miles (10+ km)
Ceiling: ceiling and visibility are OK
Clouds: unknown
Weather: no significant weather observed at this time

METAR text: TFFF 192100Z AUTO 11011KT 9999 BKN029 BKN037 30/24 Q1014
Conditions at: TFFF (LE LAMENTIN/MART, MQ) observed 2100 UTC 19 August 2019
Temperature: 30.0°C (86°F)
Dewpoint: 24.0°C (75°F) [RH = 70%]
Pressure (altimeter): 29.94 inches Hg (1014.0 mb)
Winds: from the ESE (110 degrees) at 13 MPH (11 knots; 5.7 m/s)
Visibility: 6 or more miles (10+ km)
Ceiling: 2900 feet AGL
Clouds: broken clouds at 2900 feet AGL
broken clouds at 3700 feet AGL
Weather: no significant weather observed at this time

METAR text: TFFF 192030Z AUTO 10009KT 070V130 9999 SCT030 SCT041 31/24 Q1014
Conditions at: TFFF (LE LAMENTIN/MART, MQ) observed 2030 UTC 19 August 2019
Temperature: 31.0°C (88°F)
Dewpoint: 24.0°C (75°F) [RH = 66%]
Pressure (altimeter): 29.94 inches Hg (1014.0 mb)
Winds: from the E (100 degrees) at 10 MPH (9 knots; 4.6 m/s)
Visibility: 6 or more miles (10+ km)
Ceiling: at least 12,000 feet AGL
Clouds: scattered clouds at 3000 feet AGL
scattered clouds at 4100 feet AGL
Weather: no significant weather observed at this time

METAR text: TFFF 192000Z AUTO 12010KT 9999 FEW030 31/24 Q1014
Conditions at: TFFF (LE LAMENTIN/MART, MQ) observed 2000 UTC 19 August 2019
Temperature: 31.0°C (88°F)
Dewpoint: 24.0°C (75°F) [RH = 66%]
Pressure (altimeter): 29.94 inches Hg (1014.0 mb)
Winds: from the ESE (120 degrees) at 12 MPH (10 knots; 5.1 m/s)
Visibility: 6 or more miles (10+ km)
Ceiling: at least 12,000 feet AGL
Clouds: few clouds at 3000 feet AGL
Weather: no significant weather observed at this time

METAR text: TFFF 191930Z AUTO 11011KT 9999 FEW033 31/24 Q1014
Conditions at: TFFF (LE LAMENTIN/MART, MQ) observed 1930 UTC 19 August 2019
Temperature: 31.0°C (88°F)
Dewpoint: 24.0°C (75°F) [RH = 66%]
Pressure (altimeter): 29.94 inches Hg (1014.0 mb)
Winds: from the ESE (110 degrees) at 13 MPH (11 knots; 5.7 m/s)
Visibility: 6 or more miles (10+ km)
Ceiling: at least 12,000 feet AGL
Clouds: few clouds at 3300 feet AGL
Weather: no significant weather observed at this time

METAR text: TFFF 191900Z AUTO 11012KT 080V140 9999 FEW032 32/24 Q1014
Conditions at: TFFF (LE LAMENTIN/MART, MQ) observed 1900 UTC 19 August 2019
Temperature: 32.0°C (90°F)
Dewpoint: 24.0°C (75°F) [RH = 63%]
Pressure (altimeter): 29.94 inches Hg (1014.0 mb)
Winds: from the ESE (110 degrees) at 14 MPH (12 knots; 6.2 m/s)
Visibility: 6 or more miles (10+ km)
Ceiling: at least 12,000 feet AGL
Clouds: few clouds at 3200 feet AGL
Weather: no significant weather observed at this time

METAR text: TFFF 191830Z AUTO 10011KT 080V140 9999 SCT032 BKN041 32/24 Q1015
Conditions at: TFFF (LE LAMENTIN/MART, MQ) observed 1830 UTC 19 August 2019
Temperature: 32.0°C (90°F)
Dewpoint: 24.0°C (75°F) [RH = 63%]
Pressure (altimeter): 29.97 inches Hg (1015.0 mb)
Winds: from the E (100 degrees) at 13 MPH (11 knots; 5.7 m/s)
Visibility: 6 or more miles (10+ km)
Ceiling: 4100 feet AGL
Clouds: scattered clouds at 3200 feet AGL
broken clouds at 4100 feet AGL
Weather: no significant weather observed at this time

METAR text: TFFF 191800Z AUTO 13012KT 9999 SCT032 SCT039 31/24 Q1015
Conditions at: TFFF (LE LAMENTIN/MART, MQ) observed 1800 UTC 19 August 2019
Temperature: 31.0°C (88°F)
Dewpoint: 24.0°C (75°F) [RH = 66%]
Pressure (altimeter): 29.97 inches Hg (1015.0 mb)
Winds: from the SE (130 degrees) at 14 MPH (12 knots; 6.2 m/s)
Visibility: 6 or more miles (10+ km)
Ceiling: at least 12,000 feet AGL
Clouds: scattered clouds at 3200 feet AGL
scattered clouds at 3900 feet AGL
Weather: no significant weather observed at this time

METAR text: TFFF 191730Z AUTO 12010KT 080V160 9999 BKN032 BKN042 BKN050 31/24 Q1015
Conditions at: TFFF (LE LAMENTIN/MART, MQ) observed 1730 UTC 19 August 2019
Temperature: 31.0°C (88°F)
Dewpoint: 24.0°C (75°F) [RH = 66%]
Pressure (altimeter): 29.97 inches Hg (1015.0 mb)
Winds: from the ESE (120 degrees) at 12 MPH (10 knots; 5.1 m/s)
Visibility: 6 or more miles (10+ km)
Ceiling: 3200 feet AGL
Clouds: broken clouds at 3200 feet AGL
broken clouds at 4200 feet AGL
broken clouds at 5000 feet AGL
Weather: no significant weather observed at this time

METAR text: TFFF 191700Z AUTO 12010KT 090V150 9999 SCT032 SCT040 BKN046 32/24 Q1015
Conditions at: TFFF (LE LAMENTIN/MART, MQ) observed 1700 UTC 19 August 2019
Temperature: 32.0°C (90°F)
Dewpoint: 24.0°C (75°F) [RH = 63%]
Pressure (altimeter): 29.97 inches Hg (1015.0 mb)
Winds: from the ESE (120 degrees) at 12 MPH (10 knots; 5.1 m/s)
Visibility: 6 or more miles (10+ km)
Ceiling: 4600 feet AGL
Clouds: scattered clouds at 3200 feet AGL
scattered clouds at 4000 feet AGL
broken clouds at 4600 feet AGL
Weather: no significant weather observed at this time

METAR text: TFFF 191630Z AUTO 13010KT 9999 BKN032 BKN042 BKN050 31/24 Q1016
Conditions at: TFFF (LE LAMENTIN/MART, MQ) observed 1630 UTC 19 August 2019
Temperature: 31.0°C (88°F)
Dewpoint: 24.0°C (75°F) [RH = 66%]
Pressure (altimeter): 30.00 inches Hg (1016.0 mb)
Winds: from the SE (130 degrees) at 12 MPH (10 knots; 5.1 m/s)
Visibility: 6 or more miles (10+ km)
Ceiling: 3200 feet AGL
Clouds: broken clouds at 3200 feet AGL
broken clouds at 4200 feet AGL
broken clouds at 5000 feet AGL
Weather: no significant weather observed at this time

METAR text: TFFF 191600Z AUTO 11013KT 090V160 9999 SCT031 BKN050 32/25 Q1016
Conditions at: TFFF (LE LAMENTIN/MART, MQ) observed 1600 UTC 19 August 2019
Temperature: 32.0°C (90°F)
Dewpoint: 25.0°C (77°F) [RH = 67%]
Pressure (altimeter): 30.00 inches Hg (1016.0 mb)
Winds: from the ESE (110 degrees) at 15 MPH (13 knots; 6.7 m/s)
Visibility: 6 or more miles (10+ km)
Ceiling: 5000 feet AGL
Clouds: scattered clouds at 3100 feet AGL
broken clouds at 5000 feet AGL
Weather: no significant weather observed at this time

METAR text: TFFF 191530Z AUTO 13011KT 100V160 9999 BKN031 BKN046 BKN060 32/26 Q1016
Conditions at: TFFF (LE LAMENTIN/MART, MQ) observed 1530 UTC 19 August 2019
Temperature: 32.0°C (90°F)
Dewpoint: 26.0°C (79°F) [RH = 71%]
Pressure (altimeter): 30.00 inches Hg (1016.0 mb)
Winds: from the SE (130 degrees) at 13 MPH (11 knots; 5.7 m/s)
Visibility: 6 or more miles (10+ km)
Ceiling: 3100 feet AGL
Clouds: broken clouds at 3100 feet AGL
broken clouds at 4600 feet AGL
broken clouds at 6000 feet AGL
Weather: no significant weather observed at this time

METAR text: TFFF 191500Z AUTO 14009KT 110V170 9999 SCT028 BKN058 31/25 Q1016
Conditions at: TFFF (LE LAMENTIN/MART, MQ) observed 1500 UTC 19 August 2019
Temperature: 31.0°C (88°F)
Dewpoint: 25.0°C (77°F) [RH = 71%]
Pressure (altimeter): 30.00 inches Hg (1016.0 mb)
Winds: from the SE (140 degrees) at 10 MPH (9 knots; 4.6 m/s)
Visibility: 6 or more miles (10+ km)
Ceiling: 5800 feet AGL
Clouds: scattered clouds at 2800 feet AGL
broken clouds at 5800 feet AGL
Weather: no significant weather observed at this time

METAR text: TFFF 191430Z AUTO 14011KT 9999 SCT028 32/25 Q1016
Conditions at: TFFF (LE LAMENTIN/MART, MQ) observed 1430 UTC 19 August 2019
Temperature: 32.0°C (90°F)
Dewpoint: 25.0°C (77°F) [RH = 67%]
Pressure (altimeter): 30.00 inches Hg (1016.0 mb)
Winds: from the SE (140 degrees) at 13 MPH (11 knots; 5.7 m/s)
Visibility: 6 or more miles (10+ km)
Ceiling: at least 12,000 feet AGL
Clouds: scattered clouds at 2800 feet AGL
Weather: no significant weather observed at this time

METAR text: TFFF 191400Z AUTO 14011KT 9999 FEW027 SCT060 31/26 Q1016
Conditions at: TFFF (LE LAMENTIN/MART, MQ) observed 1400 UTC 19 August 2019
Temperature: 31.0°C (88°F)
Dewpoint: 26.0°C (79°F) [RH = 75%]
Pressure (altimeter): 30.00 inches Hg (1016.0 mb)
Winds: from the SE (140 degrees) at 13 MPH (11 knots; 5.7 m/s)
Visibility: 6 or more miles (10+ km)
Ceiling: at least 12,000 feet AGL
Clouds: few clouds at 2700 feet AGL
scattered clouds at 6000 feet AGL
Weather: no significant weather observed at this time

METAR text: TFFF 191330Z AUTO 14010KT 9999 FEW024 SCT040 BKN049 30/25 Q1016
Conditions at: TFFF (LE LAMENTIN/MART, MQ) observed 1330 UTC 19 August 2019
Temperature: 30.0°C (86°F)
Dewpoint: 25.0°C (77°F) [RH = 75%]
Pressure (altimeter): 30.00 inches Hg (1016.0 mb)
Winds: from the SE (140 degrees) at 12 MPH (10 knots; 5.1 m/s)
Visibility: 6 or more miles (10+ km)
Ceiling: 4900 feet AGL
Clouds: few clouds at 2400 feet AGL
scattered clouds at 4000 feet AGL
broken clouds at 4900 feet AGL
Weather: no significant weather observed at this time

METAR text: TFFF 191300Z AUTO 13010KT 9999 SCT025 SCT031 30/25 Q1016
Conditions at: TFFF (LE LAMENTIN/MART, MQ) observed 1300 UTC 19 August 2019
Temperature: 30.0°C (86°F)
Dewpoint: 25.0°C (77°F) [RH = 75%]
Pressure (altimeter): 30.00 inches Hg (1016.0 mb)
Winds: from the SE (130 degrees) at 12 MPH (10 knots; 5.1 m/s)
Visibility: 6 or more miles (10+ km)
Ceiling: at least 12,000 feet AGL
Clouds: scattered clouds at 2500 feet AGL
scattered clouds at 3100 feet AGL
Weather: no significant weather observed at this time

METAR text: TFFF 191230Z AUTO 13010KT CAVOK 30/26 Q1016
Conditions at: TFFF (LE LAMENTIN/MART, MQ) observed 1230 UTC 19 August 2019
Temperature: 30.0°C (86°F)
Dewpoint: 26.0°C (79°F) [RH = 79%]
Pressure (altimeter): 30.00 inches Hg (1016.0 mb)
Winds: from the SE (130 degrees) at 12 MPH (10 knots; 5.1 m/s)
Visibility: 6 or more miles (10+ km)
Ceiling: ceiling and visibility are OK
Clouds: unknown
Weather: no significant weather observed at this time

METAR text: TFFF 191200Z AUTO 10006KT 9999 FEW032 29/26 Q1016
Conditions at: TFFF (LE LAMENTIN/MART, MQ) observed 1200 UTC 19 August 2019
Temperature: 29.0°C (84°F)
Dewpoint: 26.0°C (79°F) [RH = 84%]
Pressure (altimeter): 30.00 inches Hg (1016.0 mb)
Winds: from the E (100 degrees) at 7 MPH (6 knots; 3.1 m/s)
Visibility: 6 or more miles (10+ km)
Ceiling: at least 12,000 feet AGL
Clouds: few clouds at 3200 feet AGL
Weather: no significant weather observed at this time

METAR text: TFFF 191130Z AUTO VRB03KT 9999 FEW021 SCT029 BKN035 27/25 Q1015
Conditions at: TFFF (LE LAMENTIN/MART, MQ) observed 1130 UTC 19 August 2019
Temperature: 27.0°C (81°F)
Dewpoint: 25.0°C (77°F) [RH = 89%]
Pressure (altimeter): 29.97 inches Hg (1015.0 mb)
Winds: variable direction winds at 3 MPH (3 knots; 1.5 m/s)
Visibility: 6 or more miles (10+ km)
Ceiling: 3500 feet AGL
Clouds: few clouds at 2100 feet AGL
scattered clouds at 2900 feet AGL
broken clouds at 3500 feet AGL
Weather: no significant weather observed at this time

METAR text: TFFF 191100Z AUTO 12003KT 9999 FEW021 SCT026 BKN036 26/25 Q1015 TEMPO 4000 SHRA BKN020TCU
Conditions at: TFFF (LE LAMENTIN/MART, MQ) observed 1100 UTC 19 August 2019
Temperature: 26.0°C (79°F)
Dewpoint: 25.0°C (77°F) [RH = 94%]
Pressure (altimeter): 29.97 inches Hg (1015.0 mb)
Winds: from the ESE (120 degrees) at 3 MPH (3 knots; 1.5 m/s)
Visibility: 6 or more miles (10+ km)
Ceiling: 3600 feet AGL
Clouds: few clouds at 2100 feet AGL
scattered clouds at 2600 feet AGL
broken clouds at 3600 feet AGL
Weather: no significant weather observed at this time

METAR text: TFFF 191030Z AUTO 10005KT CAVOK 26/25 Q1015 TEMPO 4000 SHRA BKN020TCU
Conditions at: TFFF (LE LAMENTIN/MART, MQ) observed 1030 UTC 19 August 2019
Temperature: 26.0°C (79°F)
Dewpoint: 25.0°C (77°F) [RH = 94%]
Pressure (altimeter): 29.97 inches Hg (1015.0 mb)
Winds: from the E (100 degrees) at 6 MPH (5 knots; 2.6 m/s)
Visibility: 6 or more miles (10+ km)
Ceiling: ceiling and visibility are OK
Clouds: unknown
Weather: no significant weather observed at this time

METAR text: TFFF 191000Z AUTO VRB02KT CAVOK 25/24 Q1015 TEMPO 3000 SHRA FEW015CB BKN020TCU
Conditions at: TFFF (LE LAMENTIN/MART, MQ) observed 1000 UTC 19 August 2019
Temperature: 25.0°C (77°F)
Dewpoint: 24.0°C (75°F) [RH = 94%]
Pressure (altimeter): 29.97 inches Hg (1015.0 mb)
Winds: variable direction winds at 2 MPH (2 knots; 1.0 m/s)
Visibility: 6 or more miles (10+ km)
Ceiling: ceiling and visibility are OK
Clouds: unknown
Weather: no significant weather observed at this time

METAR text: TFFF 190930Z AUTO 11004KT 080V140 CAVOK 25/24 Q1015 TEMPO 3000 SHRA FEW015CB BKN020TCU
Conditions at: TFFF (LE LAMENTIN/MART, MQ) observed 0930 UTC 19 August 2019
Temperature: 25.0°C (77°F)
Dewpoint: 24.0°C (75°F) [RH = 94%]
Pressure (altimeter): 29.97 inches Hg (1015.0 mb)
Winds: from the ESE (110 degrees) at 5 MPH (4 knots; 2.1 m/s)
Visibility: 6 or more miles (10+ km)
Ceiling: ceiling and visibility are OK
Clouds: unknown
Weather: no significant weather observed at this time

Forecast for: TFFF (LE LAMENTIN/MART, MQ)
Text: TAF TFFF 201600Z 2018/2118 10010KT 9999 SCT032 SCT045
Forecast period: 1800 UTC 20 August 2019 to 1800 UTC 21 August 2019
Forecast type: FROM: standard forecast or significant change
Winds: from the E (100 degrees) at 12 MPH (10 knots; 5.1 m/s)
Visibility: 6 or more miles 10+ km)
Ceiling: at least 12,000 feet AGL
Clouds: scattered clouds at 3200 feet AGL
scattered clouds at 4500 feet AGL
Weather: no significant weather forecast for this period
Text: TEMPO 2018/2118 4000 SHRA BKN015TCU
Forecast period: 1800 UTC 20 August 2019 to 1800 UTC 21 August 2019
Forecast type: TEMPORARY: The following changes expected for less than half the time period
Visibility: 2.49 miles (4.01 km)
Ceiling: 1500 feet AGL
Clouds: broken clouds at 1500 feet AGL
Weather: SHRA  (rain showers)
Text: TEMPO 2104/2112 VRB03KT
Forecast period: 0400 to 1200 UTC 21 August 2019
Forecast type: TEMPORARY: The following changes expected for less than half the time period
Winds: variable direction winds at 3 MPH (3 knots; 1.5 m/s)
Visibility: missing
Ceiling: unknown
Clouds: missing
Weather: no significant weather forecast for this period